UVT650 UWPS-UWKD
Flight info
| Callsign | UVT650 |
|---|---|
| Flight time | 1h 13m |
| Altitude | 25000 |
| Route | N0420F250 UGLAD T766 SONUM |
| Aircraft | CRJ2/M-J/L |
Departure
| Time | 2026-05-07 18:50 |
|---|---|
| Airport | Saransk International Airport (UWPS) |
Arrival
| Time | 2026-05-07 20:04 |
|---|---|
| Airport | Kazan International Airport (UWKD) |
| Time | Latitude | Longitude | Altitude | Speed | Heading |
|---|---|---|---|---|---|
| 2026-05-07 18:23 | 54.13538 | 45.21633 | 652 ft | 0 kts | 123° |
| 2026-05-07 18:24 | 54.13538 | 45.21634 | 652 ft | 0 kts | 123° |
| 2026-05-07 18:33 | 54.13538 | 45.21635 | 652 ft | 0 kts | 123° |
| 2026-05-07 18:42 | 54.13538 | 45.21636 | 652 ft | 0 kts | 123° |
| 2026-05-07 18:48 | 54.13536 | 45.21639 | 652 ft | 2 kts | 123° |
| 2026-05-07 18:48 | 54.13506 | 45.21678 | 652 ft | 7 kts | 181° |
| 2026-05-07 18:48 | 54.13437 | 45.21613 | 653 ft | 16 kts | 212° |
| 2026-05-07 18:49 | 54.13348 | 45.21541 | 656 ft | 8 kts | 160° |
| 2026-05-07 18:49 | 54.13296 | 45.21648 | 654 ft | 16 kts | 122° |
| 2026-05-07 18:49 | 54.13236 | 45.21807 | 648 ft | 13 kts | 123° |
| 2026-05-07 18:49 | 54.13176 | 45.21950 | 646 ft | 15 kts | 144° |
| 2026-05-07 18:50 | 54.13072 | 45.21873 | 641 ft | 44 kts | 211° |
| 2026-05-07 18:50 | 54.12550 | 45.21301 | 647 ft | 133 kts | 213° |
| 2026-05-07 18:50 | 54.11647 | 45.20279 | 1176 ft | 163 kts | 211° |
| 2026-05-07 18:50 | 54.10641 | 45.19124 | 2026 ft | 187 kts | 209° |
| 2026-05-07 18:51 | 54.09484 | 45.17859 | 2877 ft | 206 kts | 208° |
| 2026-05-07 18:51 | 54.08203 | 45.16522 | 3738 ft | 225 kts | 209° |
| 2026-05-07 18:51 | 54.06818 | 45.15291 | 4632 ft | 229 kts | 191° |
| 2026-05-07 18:51 | 54.05259 | 45.15652 | 5635 ft | 233 kts | 150° |
| 2026-05-07 18:52 | 54.04182 | 45.17706 | 6578 ft | 241 kts | 112° |
| 2026-05-07 18:52 | 54.04059 | 45.20564 | 7462 ft | 248 kts | 77° |
| 2026-05-07 18:52 | 54.04360 | 45.23482 | 8383 ft | 254 kts | 89° |
| 2026-05-07 18:52 | 54.03983 | 45.26401 | 9269 ft | 259 kts | 113° |
| 2026-05-07 18:53 | 54.03111 | 45.29128 | 10131 ft | 265 kts | 122° |
| 2026-05-07 18:53 | 54.02126 | 45.31773 | 10981 ft | 267 kts | 122° |
| 2026-05-07 18:53 | 54.01132 | 45.34468 | 11847 ft | 270 kts | 121° |
| 2026-05-07 18:53 | 54.00193 | 45.37265 | 12715 ft | 272 kts | 112° |
| 2026-05-07 18:54 | 53.99951 | 45.40377 | 13540 ft | 271 kts | 77° |
| 2026-05-07 18:54 | 54.00735 | 45.43286 | 14311 ft | 270 kts | 53° |
| 2026-05-07 18:54 | 54.01962 | 45.45689 | 15031 ft | 272 kts | 41° |
| 2026-05-07 18:54 | 54.03425 | 45.47730 | 15747 ft | 275 kts | 36° |
| 2026-05-07 18:55 | 54.04974 | 45.49697 | 16456 ft | 278 kts | 35° |
| 2026-05-07 18:55 | 54.06525 | 45.51671 | 17156 ft | 282 kts | 36° |
| 2026-05-07 18:55 | 54.08073 | 45.53774 | 17859 ft | 286 kts | 38° |
| 2026-05-07 18:55 | 54.09618 | 45.55956 | 18503 ft | 289 kts | 38° |
| 2026-05-07 18:56 | 54.11170 | 45.58134 | 19103 ft | 292 kts | 38° |
| 2026-05-07 18:56 | 54.12738 | 45.60322 | 19700 ft | 295 kts | 38° |
| 2026-05-07 18:56 | 54.14354 | 45.62573 | 20293 ft | 298 kts | 38° |
| 2026-05-07 18:56 | 54.15953 | 45.64795 | 20868 ft | 301 kts | 38° |
| 2026-05-07 18:57 | 54.17586 | 45.67076 | 21442 ft | 303 kts | 38° |
| 2026-05-07 18:57 | 54.19350 | 45.69007 | 21976 ft | 305 kts | 23° |
| 2026-05-07 18:57 | 54.21342 | 45.70289 | 22526 ft | 307 kts | 16° |
| 2026-05-07 18:57 | 54.23388 | 45.71302 | 23071 ft | 310 kts | 14° |
| 2026-05-07 18:58 | 54.25480 | 45.72309 | 23580 ft | 312 kts | 15° |
| 2026-05-07 18:58 | 54.27577 | 45.73405 | 24027 ft | 315 kts | 17° |
| 2026-05-07 18:58 | 54.29565 | 45.74984 | 24420 ft | 319 kts | 38° |
| 2026-05-07 18:58 | 54.31062 | 45.77765 | 24731 ft | 327 kts | 54° |
| 2026-05-07 18:59 | 54.32235 | 45.81192 | 24877 ft | 337 kts | 62° |
| 2026-05-07 18:59 | 54.33294 | 45.84854 | 24939 ft | 344 kts | 63° |
| 2026-05-07 18:59 | 54.34362 | 45.88534 | 24968 ft | 352 kts | 62° |
| 2026-05-07 18:59 | 54.35526 | 45.92280 | 24976 ft | 360 kts | 60° |
| 2026-05-07 19:00 | 54.36756 | 45.96076 | 24980 ft | 367 kts | 60° |
| 2026-05-07 19:00 | 54.38003 | 45.99954 | 24979 ft | 375 kts | 60° |
| 2026-05-07 19:00 | 54.39267 | 46.03915 | 24978 ft | 382 kts | 60° |
| 2026-05-07 19:00 | 54.40551 | 46.07959 | 24977 ft | 389 kts | 60° |
| 2026-05-07 19:01 | 54.41848 | 46.12056 | 24973 ft | 395 kts | 60° |
| 2026-05-07 19:01 | 54.43181 | 46.16251 | 24974 ft | 401 kts | 60° |
| 2026-05-07 19:01 | 54.44525 | 46.20484 | 24972 ft | 406 kts | 60° |
| 2026-05-07 19:01 | 54.45871 | 46.24741 | 24971 ft | 411 kts | 61° |
| 2026-05-07 19:02 | 54.47247 | 46.29107 | 24969 ft | 416 kts | 61° |
| 2026-05-07 19:02 | 54.48634 | 46.33516 | 24968 ft | 421 kts | 61° |
| 2026-05-07 19:02 | 54.50034 | 46.37967 | 24968 ft | 425 kts | 61° |
| 2026-05-07 19:02 | 54.51451 | 46.42482 | 24968 ft | 429 kts | 61° |
| 2026-05-07 19:03 | 54.52850 | 46.46952 | 24967 ft | 425 kts | 61° |
| 2026-05-07 19:03 | 54.54252 | 46.51435 | 24964 ft | 420 kts | 61° |
| 2026-05-07 19:03 | 54.55628 | 46.55843 | 24958 ft | 414 kts | 61° |
| 2026-05-07 19:03 | 54.56966 | 46.60139 | 24956 ft | 408 kts | 61° |
| 2026-05-07 19:04 | 54.58303 | 46.64439 | 24956 ft | 404 kts | 61° |
| 2026-05-07 19:04 | 54.59625 | 46.68734 | 24959 ft | 404 kts | 62° |
| 2026-05-07 19:04 | 54.60811 | 46.73074 | 24962 ft | 403 kts | 66° |
| 2026-05-07 19:04 | 54.61868 | 46.77561 | 24967 ft | 403 kts | 68° |
| 2026-05-07 19:05 | 54.62885 | 46.82092 | 24963 ft | 404 kts | 68° |
| 2026-05-07 19:05 | 54.63906 | 46.86633 | 24961 ft | 405 kts | 68° |
| 2026-05-07 19:05 | 54.64937 | 46.91119 | 24965 ft | 406 kts | 67° |
| 2026-05-07 19:05 | 54.65997 | 46.95649 | 24964 ft | 407 kts | 67° |
| 2026-05-07 19:06 | 54.67062 | 47.00198 | 24967 ft | 407 kts | 67° |
| 2026-05-07 19:06 | 54.68831 | 47.09464 | 24964 ft | 408 kts | 74° |
| 2026-05-07 19:06 | 54.69534 | 47.14229 | 24970 ft | 408 kts | 75° |
| 2026-05-07 19:07 | 54.70235 | 47.19013 | 24967 ft | 409 kts | 75° |
| 2026-05-07 19:07 | 54.70941 | 47.23728 | 24967 ft | 409 kts | 74° |
| 2026-05-07 19:07 | 54.71685 | 47.28505 | 24967 ft | 410 kts | 74° |
| 2026-05-07 19:07 | 54.72436 | 47.33285 | 24964 ft | 410 kts | 74° |
| 2026-05-07 19:08 | 54.73173 | 47.38003 | 24966 ft | 410 kts | 74° |
| 2026-05-07 19:08 | 54.73918 | 47.42790 | 24966 ft | 411 kts | 74° |
| 2026-05-07 19:08 | 54.74412 | 47.45966 | 24964 ft | 411 kts | 74° |
| 2026-05-07 19:08 | 54.75150 | 47.50724 | 24964 ft | 411 kts | 74° |
| 2026-05-07 19:09 | 54.75891 | 47.55513 | 24965 ft | 411 kts | 74° |
| 2026-05-07 19:09 | 54.76631 | 47.60307 | 24964 ft | 412 kts | 74° |
| 2026-05-07 19:09 | 54.77371 | 47.65110 | 24967 ft | 412 kts | 74° |
| 2026-05-07 19:09 | 54.78108 | 47.69917 | 24965 ft | 412 kts | 74° |
| 2026-05-07 19:10 | 54.78845 | 47.74734 | 24963 ft | 413 kts | 74° |
| 2026-05-07 19:10 | 54.79574 | 47.79514 | 24965 ft | 415 kts | 75° |
| 2026-05-07 19:10 | 54.80311 | 47.84358 | 24965 ft | 416 kts | 75° |
| 2026-05-07 19:10 | 54.81051 | 47.89232 | 24964 ft | 417 kts | 75° |
| 2026-05-07 19:11 | 54.81780 | 47.94061 | 24963 ft | 419 kts | 75° |
| 2026-05-07 19:11 | 54.82521 | 47.98974 | 24965 ft | 421 kts | 75° |
| 2026-05-07 19:11 | 54.83265 | 48.03926 | 24964 ft | 423 kts | 75° |
| 2026-05-07 19:11 | 54.84009 | 48.08891 | 24967 ft | 425 kts | 75° |
| 2026-05-07 19:12 | 54.84752 | 48.13866 | 24964 ft | 427 kts | 75° |
| 2026-05-07 19:12 | 54.85489 | 48.18822 | 24961 ft | 428 kts | 75° |
| 2026-05-07 19:12 | 54.86236 | 48.23857 | 24961 ft | 429 kts | 75° |
| 2026-05-07 19:12 | 54.87020 | 48.28823 | 24951 ft | 430 kts | 69° |
| 2026-05-07 19:13 | 54.88465 | 48.33355 | 24951 ft | 429 kts | 51° |
| 2026-05-07 19:13 | 54.90656 | 48.36875 | 24955 ft | 428 kts | 33° |
| 2026-05-07 19:13 | 54.93314 | 48.39020 | 24965 ft | 427 kts | 15° |
| 2026-05-07 19:13 | 54.96263 | 48.39652 | 24970 ft | 427 kts | 357° |
| 2026-05-07 19:14 | 54.99171 | 48.38672 | 24977 ft | 426 kts | 339° |
| 2026-05-07 19:14 | 55.01740 | 48.36198 | 24981 ft | 427 kts | 321° |
| 2026-05-07 19:14 | 55.03767 | 48.32417 | 24982 ft | 427 kts | 303° |
| 2026-05-07 19:14 | 55.05023 | 48.27705 | 24985 ft | 428 kts | 285° |
| 2026-05-07 19:15 | 55.05376 | 48.22637 | 24984 ft | 424 kts | 268° |
| 2026-05-07 19:15 | 55.04809 | 48.17640 | 24981 ft | 418 kts | 250° |
| 2026-05-07 19:15 | 55.03388 | 48.13292 | 24982 ft | 411 kts | 231° |
| 2026-05-07 19:15 | 55.01268 | 48.10023 | 24982 ft | 404 kts | 212° |
| 2026-05-07 19:16 | 54.98733 | 48.08194 | 24982 ft | 398 kts | 193° |
| 2026-05-07 19:16 | 54.95994 | 48.07919 | 24982 ft | 392 kts | 173° |
| 2026-05-07 19:16 | 54.93397 | 48.09241 | 24984 ft | 387 kts | 153° |
| 2026-05-07 19:16 | 54.91245 | 48.11971 | 24987 ft | 381 kts | 133° |
| 2026-05-07 19:17 | 54.89800 | 48.15710 | 24989 ft | 376 kts | 112° |
| 2026-05-07 19:17 | 54.89189 | 48.20101 | 24992 ft | 371 kts | 91° |
| 2026-05-07 19:17 | 54.89509 | 48.24513 | 24992 ft | 367 kts | 70° |
| 2026-05-07 19:17 | 54.90698 | 48.28384 | 24996 ft | 363 kts | 49° |
| 2026-05-07 19:18 | 54.92568 | 48.31191 | 24996 ft | 359 kts | 28° |
| 2026-05-07 19:18 | 54.94914 | 48.32632 | 24994 ft | 358 kts | 7° |
| 2026-05-07 19:18 | 54.97397 | 48.32466 | 24999 ft | 359 kts | 345° |
| 2026-05-07 19:18 | 54.99668 | 48.30732 | 25001 ft | 362 kts | 324° |
| 2026-05-07 19:19 | 55.01448 | 48.27623 | 25003 ft | 364 kts | 303° |
| 2026-05-07 19:19 | 55.02459 | 48.23584 | 25002 ft | 366 kts | 282° |
| 2026-05-07 19:19 | 55.02564 | 48.19154 | 25002 ft | 368 kts | 261° |
| 2026-05-07 19:19 | 55.01744 | 48.14942 | 25004 ft | 369 kts | 240° |
| 2026-05-07 19:20 | 55.00136 | 48.11547 | 25000 ft | 370 kts | 220° |
| 2026-05-07 19:20 | 54.97904 | 48.09325 | 24998 ft | 370 kts | 199° |
| 2026-05-07 19:20 | 54.95372 | 48.08634 | 24997 ft | 368 kts | 178° |
| 2026-05-07 19:20 | 54.92911 | 48.09528 | 24995 ft | 365 kts | 157° |
| 2026-05-07 19:21 | 54.90788 | 48.11889 | 24994 ft | 362 kts | 135° |
| 2026-05-07 19:21 | 54.89309 | 48.15387 | 24993 ft | 359 kts | 114° |
| 2026-05-07 19:21 | 54.88674 | 48.19528 | 24991 ft | 352 kts | 92° |
| 2026-05-07 19:21 | 54.88953 | 48.23637 | 24989 ft | 346 kts | 70° |
| 2026-05-07 19:22 | 54.90097 | 48.27252 | 24987 ft | 339 kts | 47° |
| 2026-05-07 19:22 | 54.91923 | 48.29777 | 24990 ft | 334 kts | 25° |
| 2026-05-07 19:22 | 54.94130 | 48.30837 | 24987 ft | 328 kts | 1° |
| 2026-05-07 19:22 | 54.96363 | 48.30288 | 24990 ft | 324 kts | 338° |
| 2026-05-07 19:23 | 54.98245 | 48.28258 | 24994 ft | 321 kts | 314° |
| 2026-05-07 19:23 | 54.99487 | 48.25065 | 24989 ft | 318 kts | 290° |
| 2026-05-07 19:23 | 54.99858 | 48.21299 | 24998 ft | 317 kts | 266° |
| 2026-05-07 19:23 | 54.99315 | 48.17655 | 24998 ft | 316 kts | 243° |
| 2026-05-07 19:24 | 54.97944 | 48.14681 | 25000 ft | 316 kts | 218° |
| 2026-05-07 19:24 | 54.95986 | 48.12952 | 24994 ft | 316 kts | 193° |
| 2026-05-07 19:24 | 54.93823 | 48.12767 | 25000 ft | 316 kts | 169° |
| 2026-05-07 19:24 | 54.91780 | 48.14146 | 24999 ft | 315 kts | 144° |
| 2026-05-07 19:25 | 54.90261 | 48.16819 | 25000 ft | 313 kts | 120° |
| 2026-05-07 19:25 | 54.89508 | 48.20340 | 25001 ft | 311 kts | 95° |
| 2026-05-07 19:25 | 54.89668 | 48.24049 | 24994 ft | 308 kts | 70° |
| 2026-05-07 19:25 | 54.90701 | 48.27255 | 24999 ft | 304 kts | 45° |
| 2026-05-07 19:26 | 54.92388 | 48.29359 | 24999 ft | 301 kts | 20° |
| 2026-05-07 19:26 | 54.94431 | 48.29997 | 24999 ft | 299 kts | 354° |
| 2026-05-07 19:26 | 54.96411 | 48.29030 | 25002 ft | 297 kts | 329° |
| 2026-05-07 19:26 | 54.97922 | 48.26692 | 24998 ft | 296 kts | 303° |
| 2026-05-07 19:27 | 54.98699 | 48.23402 | 24996 ft | 297 kts | 278° |
| 2026-05-07 19:27 | 54.98563 | 48.19821 | 24997 ft | 299 kts | 252° |
| 2026-05-07 19:27 | 54.97535 | 48.16678 | 25002 ft | 302 kts | 226° |
| 2026-05-07 19:27 | 54.95821 | 48.14597 | 25005 ft | 305 kts | 201° |
| 2026-05-07 19:28 | 54.93760 | 48.13971 | 25004 ft | 307 kts | 176° |
| 2026-05-07 19:28 | 54.91701 | 48.14921 | 25002 ft | 308 kts | 150° |
| 2026-05-07 19:28 | 54.90060 | 48.17284 | 25000 ft | 308 kts | 126° |
| 2026-05-07 19:28 | 54.89141 | 48.20616 | 25001 ft | 308 kts | 101° |
| 2026-05-07 19:29 | 54.89107 | 48.24258 | 24996 ft | 307 kts | 76° |
| 2026-05-07 19:29 | 54.89967 | 48.27623 | 24996 ft | 305 kts | 50° |
| 2026-05-07 19:29 | 54.91557 | 48.30009 | 24996 ft | 303 kts | 25° |
| 2026-05-07 19:29 | 54.93581 | 48.30978 | 24990 ft | 302 kts | 360° |
| 2026-05-07 19:30 | 54.95611 | 48.30352 | 24993 ft | 301 kts | 335° |
| 2026-05-07 19:30 | 54.97304 | 48.28246 | 24989 ft | 301 kts | 309° |
| 2026-05-07 19:30 | 54.98306 | 48.25064 | 24987 ft | 302 kts | 284° |
| 2026-05-07 19:30 | 54.98422 | 48.21448 | 24987 ft | 304 kts | 259° |
| 2026-05-07 19:31 | 54.97624 | 48.18034 | 24991 ft | 307 kts | 234° |
| 2026-05-07 19:31 | 54.96079 | 48.15542 | 24987 ft | 309 kts | 209° |
| 2026-05-07 19:31 | 54.94043 | 48.14381 | 24988 ft | 311 kts | 184° |
| 2026-05-07 19:31 | 54.91897 | 48.14801 | 24987 ft | 313 kts | 159° |
| 2026-05-07 19:32 | 54.90033 | 48.16737 | 24983 ft | 313 kts | 135° |
| 2026-05-07 19:32 | 54.88802 | 48.19823 | 24985 ft | 313 kts | 110° |
| 2026-05-07 19:32 | 54.88415 | 48.23516 | 24986 ft | 311 kts | 85° |
| 2026-05-07 19:32 | 54.88939 | 48.27106 | 24982 ft | 310 kts | 60° |
| 2026-05-07 19:33 | 54.90261 | 48.29969 | 24979 ft | 308 kts | 36° |
| 2026-05-07 19:33 | 54.92163 | 48.31608 | 24979 ft | 306 kts | 11° |
| 2026-05-07 19:33 | 54.94280 | 48.31688 | 24979 ft | 305 kts | 346° |
| 2026-05-07 19:33 | 54.96208 | 48.30185 | 24977 ft | 305 kts | 321° |
| 2026-05-07 19:34 | 54.97565 | 48.27429 | 24979 ft | 305 kts | 296° |
| 2026-05-07 19:34 | 54.98124 | 48.23872 | 24982 ft | 307 kts | 271° |
| 2026-05-07 19:34 | 54.97763 | 48.20257 | 24980 ft | 309 kts | 246° |
| 2026-05-07 19:34 | 54.96539 | 48.17190 | 24980 ft | 311 kts | 221° |
| 2026-05-07 19:35 | 54.94682 | 48.15287 | 24979 ft | 313 kts | 197° |
| 2026-05-07 19:35 | 54.92533 | 48.14887 | 24978 ft | 315 kts | 172° |
| 2026-05-07 19:35 | 54.90453 | 48.16069 | 24978 ft | 316 kts | 148° |
| 2026-05-07 19:35 | 54.88855 | 48.18583 | 24973 ft | 315 kts | 123° |
| 2026-05-07 19:36 | 54.87974 | 48.22054 | 24974 ft | 314 kts | 99° |
| 2026-05-07 19:36 | 54.87991 | 48.25785 | 24971 ft | 313 kts | 75° |
| 2026-05-07 19:36 | 54.88897 | 48.29187 | 24973 ft | 311 kts | 50° |
| 2026-05-07 19:36 | 54.90529 | 48.31616 | 24980 ft | 309 kts | 27° |
| 2026-05-07 19:37 | 54.92348 | 48.33702 | 24942 ft | 320 kts | 43° |
| 2026-05-07 19:37 | 54.93592 | 48.36965 | 24944 ft | 330 kts | 68° |
| 2026-05-07 19:37 | 54.94296 | 48.40833 | 24979 ft | 338 kts | 72° |
| 2026-05-07 19:37 | 54.95113 | 48.44664 | 24990 ft | 346 kts | 63° |
| 2026-05-07 19:38 | 54.96290 | 48.48373 | 24994 ft | 354 kts | 58° |
| 2026-05-07 19:38 | 54.97575 | 48.52099 | 24990 ft | 362 kts | 58° |
| 2026-05-07 19:38 | 54.98900 | 48.55959 | 24657 ft | 379 kts | 58° |
| 2026-05-07 19:38 | 55.00234 | 48.59927 | 24300 ft | 384 kts | 59° |
| 2026-05-07 19:39 | 55.01566 | 48.64001 | 23920 ft | 388 kts | 60° |
| 2026-05-07 19:39 | 55.02881 | 48.68085 | 23455 ft | 383 kts | 60° |
| 2026-05-07 19:39 | 55.04161 | 48.72114 | 22906 ft | 376 kts | 60° |
| 2026-05-07 19:39 | 55.05421 | 48.76020 | 22374 ft | 371 kts | 59° |
| 2026-05-07 19:40 | 55.06675 | 48.79898 | 21705 ft | 361 kts | 59° |
| 2026-05-07 19:40 | 55.07895 | 48.83672 | 20972 ft | 353 kts | 59° |
| 2026-05-07 19:40 | 55.09093 | 48.87383 | 20261 ft | 347 kts | 59° |
| 2026-05-07 19:40 | 55.10271 | 48.91038 | 19566 ft | 342 kts | 59° |
| 2026-05-07 19:41 | 55.11413 | 48.94587 | 18904 ft | 337 kts | 59° |
| 2026-05-07 19:41 | 55.12561 | 48.98159 | 18240 ft | 334 kts | 59° |
| 2026-05-07 19:41 | 55.13684 | 49.01658 | 17488 ft | 330 kts | 59° |
| 2026-05-07 19:41 | 55.14808 | 49.05165 | 16761 ft | 327 kts | 59° |
| 2026-05-07 19:42 | 55.15943 | 49.08605 | 16036 ft | 323 kts | 53° |
| 2026-05-07 19:42 | 55.17556 | 49.11131 | 15331 ft | 313 kts | 25° |
| 2026-05-07 19:42 | 55.19590 | 49.12390 | 14639 ft | 308 kts | 13° |
| 2026-05-07 19:42 | 55.21684 | 49.13212 | 13935 ft | 306 kts | 8° |
| 2026-05-07 19:43 | 55.23764 | 49.13845 | 13174 ft | 304 kts | 7° |
| 2026-05-07 19:43 | 55.25858 | 49.14457 | 12393 ft | 302 kts | 8° |
| 2026-05-07 19:43 | 55.27904 | 49.15056 | 11639 ft | 300 kts | 8° |
| 2026-05-07 19:43 | 55.29962 | 49.15689 | 10896 ft | 297 kts | 9° |
| 2026-05-07 19:44 | 55.31988 | 49.16360 | 10175 ft | 294 kts | 10° |
| 2026-05-07 19:44 | 55.33985 | 49.17029 | 9424 ft | 291 kts | 9° |
| 2026-05-07 19:44 | 55.35968 | 49.17478 | 8656 ft | 288 kts | 5° |
| 2026-05-07 19:44 | 55.37959 | 49.17782 | 8025 ft | 280 kts | 4° |
| 2026-05-07 19:45 | 55.39868 | 49.18006 | 7577 ft | 269 kts | 3° |
| 2026-05-07 19:45 | 55.41674 | 49.18175 | 7244 ft | 256 kts | 2° |
| 2026-05-07 19:45 | 55.43393 | 49.18295 | 7088 ft | 238 kts | 1° |
| 2026-05-07 19:45 | 55.44954 | 49.17910 | 6955 ft | 222 kts | 333° |
| 2026-05-07 19:46 | 55.46032 | 49.16101 | 6765 ft | 212 kts | 301° |
| 2026-05-07 19:46 | 55.46477 | 49.13613 | 6599 ft | 215 kts | 284° |
| 2026-05-07 19:46 | 55.46924 | 49.11085 | 6423 ft | 217 kts | 298° |
| 2026-05-07 19:46 | 55.47593 | 49.08720 | 6265 ft | 219 kts | 295° |
| 2026-05-07 19:47 | 55.48214 | 49.06241 | 6117 ft | 220 kts | 294° |
| 2026-05-07 19:47 | 55.48805 | 49.03775 | 6048 ft | 221 kts | 294° |
| 2026-05-07 19:47 | 55.49328 | 49.01148 | 6009 ft | 233 kts | 278° |
| 2026-05-07 19:47 | 55.48998 | 48.98327 | 6004 ft | 244 kts | 239° |
| 2026-05-07 19:48 | 55.47708 | 48.96375 | 6018 ft | 251 kts | 202° |
| 2026-05-07 19:48 | 55.45993 | 48.96106 | 6030 ft | 256 kts | 166° |
| 2026-05-07 19:48 | 55.44454 | 48.97642 | 6034 ft | 259 kts | 130° |
| 2026-05-07 19:48 | 55.43606 | 49.00417 | 6046 ft | 260 kts | 108° |
| 2026-05-07 19:49 | 55.42994 | 49.03406 | 6025 ft | 264 kts | 111° |
| 2026-05-07 19:49 | 55.41897 | 49.05949 | 5973 ft | 257 kts | 145° |
| 2026-05-07 19:49 | 55.40277 | 49.06841 | 5945 ft | 241 kts | 182° |
| 2026-05-07 19:49 | 55.38691 | 49.05938 | 5961 ft | 244 kts | 209° |
| 2026-05-07 19:50 | 55.37204 | 49.04455 | 5983 ft | 252 kts | 210° |
| 2026-05-07 19:50 | 55.35496 | 49.03688 | 5976 ft | 261 kts | 176° |
| 2026-05-07 19:50 | 55.33803 | 49.04816 | 5984 ft | 266 kts | 140° |
| 2026-05-07 19:50 | 55.32734 | 49.07457 | 5997 ft | 269 kts | 106° |
| 2026-05-07 19:51 | 55.32672 | 49.10668 | 6007 ft | 269 kts | 72° |
| 2026-05-07 19:51 | 55.33642 | 49.13423 | 6021 ft | 269 kts | 40° |
| 2026-05-07 19:51 | 55.35158 | 49.15391 | 6024 ft | 270 kts | 30° |
| 2026-05-07 19:51 | 55.36845 | 49.16721 | 6010 ft | 261 kts | 20° |
| 2026-05-07 19:52 | 55.38522 | 49.17809 | 5975 ft | 257 kts | 18° |
| 2026-05-07 19:52 | 55.40238 | 49.18857 | 5948 ft | 265 kts | 17° |
| 2026-05-07 19:52 | 55.42042 | 49.19764 | 5741 ft | 270 kts | 14° |
| 2026-05-07 19:52 | 55.43838 | 49.20558 | 5501 ft | 269 kts | 12° |
| 2026-05-07 19:53 | 55.45680 | 49.20507 | 5246 ft | 266 kts | 341° |
| 2026-05-07 19:53 | 55.47156 | 49.18620 | 5006 ft | 265 kts | 306° |
| 2026-05-07 19:53 | 55.47831 | 49.15656 | 4800 ft | 264 kts | 284° |
| 2026-05-07 19:53 | 55.48157 | 49.12443 | 4564 ft | 266 kts | 277° |
| 2026-05-07 19:54 | 55.48361 | 49.09223 | 4324 ft | 268 kts | 276° |
| 2026-05-07 19:54 | 55.48571 | 49.05943 | 4064 ft | 268 kts | 283° |
| 2026-05-07 19:54 | 55.49398 | 49.03014 | 3832 ft | 267 kts | 304° |
| 2026-05-07 19:54 | 55.50601 | 49.00546 | 3636 ft | 265 kts | 318° |
| 2026-05-07 19:55 | 55.52049 | 48.98635 | 3441 ft | 255 kts | 326° |
| 2026-05-07 19:55 | 55.53531 | 48.97126 | 3231 ft | 237 kts | 334° |
| 2026-05-07 19:55 | 55.55027 | 48.96118 | 3017 ft | 223 kts | 343° |
| 2026-05-07 19:55 | 55.56497 | 48.95571 | 2789 ft | 213 kts | 355° |
| 2026-05-07 19:56 | 55.57979 | 48.95714 | 2618 ft | 211 kts | 7° |
| 2026-05-07 19:56 | 55.59398 | 48.96213 | 2542 ft | 206 kts | 16° |
| 2026-05-07 19:56 | 55.60772 | 48.96855 | 2499 ft | 202 kts | 8° |
| 2026-05-07 19:56 | 55.62142 | 48.97005 | 2489 ft | 198 kts | 3° |
| 2026-05-07 19:57 | 55.63523 | 48.97181 | 2490 ft | 201 kts | 7° |
| 2026-05-07 19:57 | 55.64935 | 48.97571 | 2505 ft | 209 kts | 13° |
| 2026-05-07 19:57 | 55.66342 | 48.98254 | 2510 ft | 207 kts | 20° |
| 2026-05-07 19:57 | 55.67623 | 48.99146 | 2508 ft | 188 kts | 25° |
| 2026-05-07 19:58 | 55.68758 | 49.00135 | 2524 ft | 173 kts | 30° |
| 2026-05-07 19:58 | 55.69598 | 49.01413 | 2477 ft | 148 kts | 63° |
| 2026-05-07 19:58 | 55.69978 | 49.02955 | 2455 ft | 131 kts | 87° |
| 2026-05-07 19:58 | 55.69779 | 49.04474 | 2437 ft | 128 kts | 114° |
| 2026-05-07 19:59 | 55.69407 | 49.05949 | 2506 ft | 131 kts | 120° |
| 2026-05-07 19:59 | 55.68974 | 49.07329 | 2535 ft | 128 kts | 125° |
| 2026-05-07 19:59 | 55.68471 | 49.08652 | 2539 ft | 129 kts | 129° |
| 2026-05-07 19:59 | 55.68121 | 49.09497 | 2538 ft | 128 kts | 129° |
| 2026-05-07 20:00 | 55.67580 | 49.10767 | 2447 ft | 129 kts | 130° |
| 2026-05-07 20:00 | 55.66871 | 49.12420 | 2147 ft | 125 kts | 129° |
| 2026-05-07 20:00 | 55.66515 | 49.13250 | 1996 ft | 124 kts | 129° |
| 2026-05-07 20:00 | 55.65997 | 49.14464 | 1768 ft | 126 kts | 129° |
| 2026-05-07 20:01 | 55.65467 | 49.15703 | 1547 ft | 126 kts | 128° |
| 2026-05-07 20:01 | 55.64936 | 49.16956 | 1326 ft | 127 kts | 128° |
| 2026-05-07 20:01 | 55.64413 | 49.18176 | 1201 ft | 125 kts | 128° |
| 2026-05-07 20:01 | 55.63880 | 49.19433 | 1128 ft | 130 kts | 127° |
| 2026-05-07 20:02 | 55.63338 | 49.20718 | 1021 ft | 127 kts | 127° |
| 2026-05-07 20:02 | 55.62812 | 49.21959 | 838 ft | 128 kts | 126° |
| 2026-05-07 20:02 | 55.62361 | 49.23304 | 667 ft | 126 kts | 120° |
| 2026-05-07 20:02 | 55.61886 | 49.24611 | 519 ft | 128 kts | 122° |
| 2026-05-07 20:03 | 55.61405 | 49.25871 | 408 ft | 111 kts | 124° |
| 2026-05-07 20:03 | 55.61057 | 49.26759 | 412 ft | 63 kts | 124° |
| 2026-05-07 20:03 | 55.60826 | 49.27362 | 411 ft | 58 kts | 126° |
| 2026-05-07 20:03 | 55.60606 | 49.27937 | 415 ft | 56 kts | 122° |
| 2026-05-07 20:04 | 55.60410 | 49.28484 | 416 ft | 38 kts | 104° |
| 2026-05-07 20:04 | 55.60469 | 49.28670 | 414 ft | 1 kts | 34° |
| 2026-05-07 20:05 | 55.60483 | 49.28686 | 413 ft | 7 kts | 34° |
| 2026-05-07 20:05 | 55.60557 | 49.28777 | 414 ft | 18 kts | 35° |
| 2026-05-07 20:05 | 55.60577 | 49.28974 | 414 ft | 20 kts | 97° |
| 2026-05-07 20:06 | 55.60643 | 49.29221 | 414 ft | 25 kts | 34° |
| 2026-05-07 20:06 | 55.60733 | 49.29361 | 411 ft | 7 kts | 84° |
| 2026-05-07 20:06 | 55.60730 | 49.29421 | 414 ft | 5 kts | 68° |
| 2026-05-07 20:06 | 55.60756 | 49.29466 | 414 ft | 0 kts | 35° |